Time;durP1;ratioP1;P1;durP2;ratioP2;P2;SDS_P1;SDS_P2;PMS_P1;PMS_P2;Temp;Humidity;BMP_temperature;BMP_pressure;BME280_temperature;BME280_humidity;BME280_pressure;Samples;Min_cycle;Max_cycle;Signal;HPM_P1;HPM_P2
2022/04/24 00:01:53;;;;;;;;;;;24.00;40.50;;;;;;1540656;77;612;-64
2022/04/24 00:03:55;;;;;;;;;;;24.00;40.50;;;;;;1540780;77;660;-65
2022/04/24 00:05:57;;;;;;;;;;;23.90;40.50;;;;;;1534456;77;1144;-63
2022/04/24 00:07:59;;;;;;;;;;;23.90;40.50;;;;;;1536868;77;732;-65
2022/04/24 00:10:01;;;;;;;;;;;23.90;40.70;;;;;;1538015;77;887;-65
2022/04/24 00:12:03;;;;;;;;;;;23.90;40.70;;;;;;1531156;77;1932;-65
2022/04/24 00:14:09;;;;;;;;;;;23.90;40.70;;;;;;1537055;77;676;-65
2022/04/24 00:16:11;;;;;;;;;;;23.90;40.70;;;;;;1532995;76;1620;-64
2022/04/24 00:18:13;;;;;;;;;;;23.90;40.70;;;;;;1536757;77;682;-65
2022/04/24 00:20:15;;;;;;;;;;;23.90;40.70;;;;;;1529203;77;1493;-64
2022/04/24 00:22:17;;;;;;;;;;;23.80;40.50;;;;;;1533631;77;648;-64
2022/04/24 00:24:19;;;;;;;;;;;23.80;40.60;;;;;;1538632;77;646;-66
2022/04/24 00:26:21;;;;;;;;;;;23.90;40.70;;;;;;1530415;77;1308;-64
2022/04/24 00:28:23;;;;;;;;;;;23.90;40.70;;;;;;1532136;77;642;-63
2022/04/24 00:30:25;;;;;;;;;;;23.80;40.80;;;;;;1531684;76;1952;-65
2022/04/24 00:32:26;;;;;;;;;;;23.90;40.80;;;;;;1540411;76;880;-65
2022/04/24 00:34:29;;;;;;;;;;;23.80;40.70;;;;;;1537041;77;672;-65
2022/04/24 00:36:30;;;;;;;;;;;23.90;40.80;;;;;;1528442;77;1119;-66
2022/04/24 00:38:33;;;;;;;;;;;23.90;40.80;;;;;;1530484;77;736;-63
2022/04/24 00:40:34;;;;;;;;;;;23.80;40.80;;;;;;1527781;77;684;-64
2022/04/24 00:42:36;;;;;;;;;;;23.80;40.80;;;;;;1538407;77;673;-66
2022/04/24 00:44:38;;;;;;;;;;;23.90;41.00;;;;;;1538148;77;976;-64
2022/04/24 00:46:59;;;;;;;;;;;23.90;41.00;;;;;;1541125;77;1123;-63
2022/04/24 00:49:00;;;;;;;;;;;23.80;40.80;;;;;;1537517;77;692;-65
2022/04/24 00:51:02;;;;;;;;;;;23.80;41.00;;;;;;1536685;77;1954;-64
2022/04/24 00:53:04;;;;;;;;;;;23.90;41.00;;;;;;1532444;77;660;-64
2022/04/24 00:55:07;;;;;;;;;;;23.80;41.00;;;;;;1539388;77;700;-65
2022/04/24 00:57:10;;;;;;;;;;;23.80;41.00;;;;;;1539197;77;718;-65
2022/04/24 00:59:13;;;;;;;;;;;23.80;41.10;;;;;;1532186;77;1539;-65
2022/04/24 01:01:15;;;;;;;;;;;23.80;41.00;;;;;;1539699;77;701;-65
2022/04/24 01:03:16;;;;;;;;;;;23.70;41.10;;;;;;1541127;77;674;-67
2022/04/24 01:05:18;;;;;;;;;;;23.70;41.10;;;;;;1536247;77;1142;-64
2022/04/24 01:07:20;;;;;;;;;;;23.70;41.10;;;;;;1528518;75;641;-65
2022/04/24 01:09:23;;;;;;;;;;;23.80;41.20;;;;;;1530879;77;651;-65
2022/04/24 01:11:25;;;;;;;;;;;23.70;41.20;;;;;;1530715;77;1921;-64
2022/04/24 01:13:26;;;;;;;;;;;23.70;41.10;;;;;;1529700;77;837;-64
2022/04/24 01:15:48;;;;;;;;;;;23.70;41.20;;;;;;1543145;76;1177;-62
2022/04/24 01:17:49;;;;;;;;;;;23.70;41.30;;;;;;1572389;74;1577;-64
2022/04/24 01:19:51;;;;;;;;;;;23.80;41.20;;;;;;1573527;74;660;-63
2022/04/24 01:21:53;;;;;;;;;;;23.80;41.30;;;;;;1578027;74;677;-63
2022/04/24 01:23:55;;;;;;;;;;;23.80;41.20;;;;;;1569886;74;660;-65
2022/04/24 01:25:57;;;;;;;;;;;23.80;41.10;;;;;;1580825;74;1152;-67
2022/04/24 01:27:59;;;;;;;;;;;23.80;41.20;;;;;;1582168;74;741;-65
2022/04/24 01:30:01;;;;;;;;;;;23.70;41.30;;;;;;1599888;72;722;-64
2022/04/24 01:32:03;;;;;;;;;;;23.80;41.30;;;;;;1582902;74;1929;-63
2022/04/24 01:34:05;;;;;;;;;;;23.80;41.30;;;;;;1598430;74;594;-65
2022/04/24 01:36:07;;;;;;;;;;;23.80;41.30;;;;;;1585245;72;1341;-64
2022/04/24 01:38:09;;;;;;;;;;;23.90;41.30;;;;;;1583782;72;730;-64
2022/04/24 01:40:11;;;;;;;;;;;23.80;41.20;;;;;;1582374;72;635;-65
2022/04/24 01:42:12;;;;;;;;;;;23.90;41.30;;;;;;1597019;74;642;-65
2022/04/24 01:44:14;;;;;;;;;;;23.80;41.30;;;;;;1589212;74;731;-64
2022/04/24 01:46:16;;;;;;;;;;;23.80;41.30;;;;;;1591167;72;1151;-65
2022/04/24 01:48:20;;;;;;;;;;;23.80;41.40;;;;;;1583774;72;647;-65
2022/04/24 01:50:21;;;;;;;;;;;23.80;41.30;;;;;;1588530;74;696;-65
2022/04/24 01:52:24;;;;;;;;;;;23.80;41.40;;;;;;1592325;74;1938;-64
2022/04/24 01:54:25;;;;;;;;;;;23.70;41.40;;;;;;1602002;74;711;-64
2022/04/24 01:56:27;;;;;;;;;;;23.70;41.50;;;;;;1591788;72;1108;-64
2022/04/24 01:58:29;;;;;;;;;;;23.80;41.50;;;;;;1588799;74;658;-64
2022/04/24 02:00:31;;;;;;;;;;;23.70;41.50;;;;;;1590259;74;622;-64
2022/04/24 02:02:33;;;;;;;;;;;23.70;41.50;;;;;;1601988;72;767;-64
2022/04/24 02:04:35;;;;;;;;;;;23.70;41.50;;;;;;1591022;72;620;-66
2022/04/24 02:06:37;;;;;;;;;;;23.70;41.60;;;;;;1599402;72;1208;-64
2022/04/24 02:08:39;;;;;;;;;;;23.70;41.60;;;;;;1577110;74;650;-66
2022/04/24 02:10:41;;;;;;;;;;;23.70;41.50;;;;;;1595450;74;695;-61
2022/04/24 02:12:44;;;;;;;;;;;23.70;41.60;;;;;;1597568;74;1896;-63
2022/04/24 02:14:46;;;;;;;;;;;23.80;41.50;;;;;;1579507;74;706;-65
2022/04/24 02:16:48;;;;;;;;;;;23.70;41.50;;;;;;1588169;74;1168;-64
2022/04/24 02:18:50;;;;;;;;;;;23.80;41.50;;;;;;1583296;75;687;-64
2022/04/24 02:20:52;;;;;;;;;;;23.80;41.60;;;;;;1572488;74;672;-65
2022/04/24 02:22:55;;;;;;;;;;;23.80;41.50;;;;;;1584671;73;630;-65
2022/04/24 02:24:57;;;;;;;;;;;23.80;41.50;;;;;;1564769;75;721;-65
2022/04/24 02:26:59;;;;;;;;;;;23.80;41.60;;;;;;1576081;74;1133;-64
2022/04/24 02:29:01;;;;;;;;;;;23.80;41.50;;;;;;1578499;75;665;-65
2022/04/24 02:31:03;;;;;;;;;;;23.90;41.70;;;;;;1584113;75;671;-63
2022/04/24 02:33:05;;;;;;;;;;;23.90;41.70;;;;;;1574869;73;688;-63
2022/04/24 02:35:07;;;;;;;;;;;24.00;41.70;;;;;;1576126;73;741;-62
2022/04/24 02:37:09;;;;;;;;;;;24.00;41.60;;;;;;1566762;75;1136;-62
2022/04/24 02:39:10;;;;;;;;;;;24.10;41.60;;;;;;1583968;73;581;-63
2022/04/24 02:41:12;;;;;;;;;;;24.20;41.60;;;;;;1570904;75;629;-66
2022/04/24 02:43:14;;;;;;;;;;;24.00;41.60;;;;;;1566397;73;651;-63
2022/04/24 02:45:16;;;;;;;;;;;23.90;41.80;;;;;;1580822;73;687;-65
2022/04/24 02:47:18;;;;;;;;;;;23.80;42.00;;;;;;1565184;75;1158;-64
2022/04/24 02:49:20;;;;;;;;;;;23.80;42.10;;;;;;1570785;75;709;-65
2022/04/24 02:51:22;;;;;;;;;;;23.70;42.20;;;;;;1567325;75;1934;-64
2022/04/24 02:53:24;;;;;;;;;;;23.70;42.20;;;;;;1571354;73;804;-64
2022/04/24 02:55:28;;;;;;;;;;;23.70;42.30;;;;;;1567181;75;722;-64
2022/04/24 02:57:32;;;;;;;;;;;23.70;42.20;;;;;;1574629;74;621;-63
2022/04/24 02:59:34;;;;;;;;;;;23.70;42.40;;;;;;1561649;73;1005;-64
2022/04/24 03:01:36;;;;;;;;;;;23.70;42.30;;;;;;1566461;75;578;-66
2022/04/24 03:03:38;;;;;;;;;;;23.70;42.30;;;;;;1578721;74;685;-66
2022/04/24 03:05:40;;;;;;;;;;;23.70;42.30;;;;;;1557890;75;1146;-65
2022/04/24 03:07:42;;;;;;;;;;;23.70;42.20;;;;;;1578134;75;761;-65
2022/04/24 03:09:44;;;;;;;;;;;23.70;42.10;;;;;;1570051;73;1456;-65
2022/04/24 03:11:46;;;;;;;;;;;23.70;42.10;;;;;;1562773;73;1940;-64
2022/04/24 03:13:48;;;;;;;;;;;23.70;42.10;;;;;;1567104;75;753;-65
2022/04/24 03:15:50;;;;;;;;;;;23.70;42.10;;;;;;1568806;74;1177;-65
2022/04/24 03:17:54;;;;;;;;;;;23.70;42.00;;;;;;1575795;75;701;-64
2022/04/24 03:19:55;;;;;;;;;;;23.80;41.90;;;;;;1562356;74;1626;-64
2022/04/24 03:21:57;;;;;;;;;;;23.70;41.80;;;;;;1580473;75;708;-66
2022/04/24 03:23:59;;;;;;;;;;;23.80;41.80;;;;;;1557703;75;713;-67
2022/04/24 03:26:01;;;;;;;;;;;23.70;41.80;;;;;;1573206;75;1156;-65
2022/04/24 03:28:03;;;;;;;;;;;23.70;41.70;;;;;;1564745;73;1368;-65
2022/04/24 03:30:05;;;;;;;;;;;23.80;41.70;;;;;;1574208;73;797;-65
2022/04/24 03:32:07;;;;;;;;;;;23.80;41.50;;;;;;1578672;75;1942;-66
2022/04/24 03:34:09;;;;;;;;;;;23.80;41.50;;;;;;1582903;75;653;-66
2022/04/24 03:36:11;;;;;;;;;;;23.70;41.50;;;;;;1563632;73;1150;-67
2022/04/24 03:38:13;;;;;;;;;;;23.80;41.40;;;;;;1571005;75;665;-68
2022/04/24 03:40:15;;;;;;;;;;;23.80;41.40;;;;;;1568014;74;626;-67
2022/04/24 03:42:16;;;;;;;;;;;23.80;41.50;;;;;;1570944;75;667;-67
2022/04/24 03:44:18;;;;;;;;;;;23.80;41.40;;;;;;1578809;75;734;-66
2022/04/24 03:46:20;;;;;;;;;;;23.80;41.30;;;;;;1566815;73;1204;-66
2022/04/24 03:48:22;;;;;;;;;;;23.80;41.30;;;;;;1562736;75;614;-68
2022/04/24 03:50:24;;;;;;;;;;;23.80;41.30;;;;;;1564778;75;683;-66
2022/04/24 03:52:26;;;;;;;;;;;23.80;41.20;;;;;;1571839;75;1949;-65
2022/04/24 03:54:28;;;;;;;;;;;23.80;41.20;;;;;;1565820;75;625;-66
2022/04/24 03:56:31;;;;;;;;;;;23.80;41.10;;;;;;1569758;73;1134;-68
2022/04/24 03:58:33;;;;;;;;;;;23.80;41.10;;;;;;1567281;75;621;-66
2022/04/24 04:00:36;;;;;;;;;;;23.90;41.20;;;;;;1581293;75;682;-65
2022/04/24 04:02:47;;;;;;;;;;;23.80;41.10;;;;;;1598438;73;706;-66
2022/04/24 04:04:48;;;;;;;;;;;23.90;41.20;;;;;;1571090;75;1469;-66
2022/04/24 04:06:50;;;;;;;;;;;23.80;41.00;;;;;;1564968;75;1135;-67
2022/04/24 04:08:52;;;;;;;;;;;23.80;41.00;;;;;;1564008;75;649;-65
2022/04/24 04:10:54;;;;;;;;;;;23.80;41.00;;;;;;1577366;73;638;-65
2022/04/24 04:12:56;;;;;;;;;;;23.80;41.00;;;;;;1567056;73;1905;-65
2022/04/24 04:15:00;;;;;;;;;;;23.90;41.00;;;;;;1566210;75;702;-65
2022/04/24 04:17:02;;;;;;;;;;;23.90;41.10;;;;;;1574471;74;1176;-65
2022/04/24 04:19:04;;;;;;;;;;;23.90;41.00;;;;;;1569583;74;787;-65
2022/04/24 04:21:05;;;;;;;;;;;23.90;41.00;;;;;;1559090;75;646;-67
2022/04/24 04:23:07;;;;;;;;;;;23.90;41.00;;;;;;1571792;75;641;-66
2022/04/24 04:25:09;;;;;;;;;;;23.90;41.00;;;;;;1570821;73;1354;-66
2022/04/24 04:27:11;;;;;;;;;;;23.90;41.00;;;;;;1569270;73;1125;-67
2022/04/24 04:29:13;;;;;;;;;;;23.90;40.90;;;;;;1563067;73;673;-69
2022/04/24 04:31:15;;;;;;;;;;;23.90;41.00;;;;;;1576045;73;634;-65
2022/04/24 04:33:17;;;;;;;;;;;23.90;40.90;;;;;;1563549;75;1946;-65
2022/04/24 04:35:22;;;;;;;;;;;23.80;40.80;;;;;;1578807;73;650;-66
2022/04/24 04:37:22;;;;;;;;;;;23.90;40.90;;;;;;1568383;73;1603;-65
2022/04/24 04:39:24;;;;;;;;;;;23.90;40.90;;;;;;1575677;75;675;-64
2022/04/24 04:41:26;;;;;;;;;;;23.90;40.90;;;;;;1569980;74;673;-65
2022/04/24 04:43:28;;;;;;;;;;;23.90;40.90;;;;;;1550581;74;619;-66
2022/04/24 04:45:30;;;;;;;;;;;23.90;40.80;;;;;;1553707;76;1150;-66
2022/04/24 04:47:32;;;;;;;;;;;23.80;40.80;;;;;;1527443;76;635;-65
2022/04/24 04:49:34;;;;;;;;;;;23.90;40.90;;;;;;1530046;76;664;-64
2022/04/24 04:51:36;;;;;;;;;;;23.90;40.90;;;;;;1515502;76;630;-64
2022/04/24 04:53:38;;;;;;;;;;;23.80;40.70;;;;;;1520669;76;1931;-65
2022/04/24 04:55:40;;;;;;;;;;;24.00;40.80;;;;;;1556436;76;1157;-64
2022/04/24 04:57:42;;;;;;;;;;;23.90;40.70;;;;;;1556675;74;630;-63
2022/04/24 04:59:44;;;;;;;;;;;23.90;40.70;;;;;;1556679;76;705;-63
2022/04/24 05:01:46;;;;;;;;;;;23.90;40.70;;;;;;1556893;75;1538;-63
2022/04/24 05:03:48;;;;;;;;;;;24.00;40.70;;;;;;1556466;74;680;-64
2022/04/24 05:05:49;;;;;;;;;;;23.90;40.70;;;;;;1556290;75;1157;-64
2022/04/24 05:07:52;;;;;;;;;;;23.90;40.70;;;;;;1556688;76;666;-65
2022/04/24 05:09:54;;;;;;;;;;;23.90;40.60;;;;;;1556728;76;786;-65
2022/04/24 05:11:56;;;;;;;;;;;23.90;40.80;;;;;;1556975;74;681;-64
2022/04/24 05:13:58;;;;;;;;;;;23.90;40.80;;;;;;1562094;74;1942;-64
2022/04/24 05:16:00;;;;;;;;;;;23.90;40.90;;;;;;1548735;76;1146;-64
2022/04/24 05:18:02;;;;;;;;;;;23.90;40.80;;;;;;1556488;76;816;-65
2022/04/24 05:20:04;;;;;;;;;;;23.90;40.80;;;;;;1556163;76;1350;-65
2022/04/24 05:22:06;;;;;;;;;;;23.90;40.70;;;;;;1557058;76;682;-65
2022/04/24 05:24:08;;;;;;;;;;;23.90;40.70;;;;;;1557077;74;731;-65
2022/04/24 05:26:10;;;;;;;;;;;23.90;40.70;;;;;;1556012;76;1438;-65
2022/04/24 05:28:11;;;;;;;;;;;23.90;40.70;;;;;;1557248;75;756;-64
2022/04/24 05:30:13;;;;;;;;;;;23.90;40.70;;;;;;1557079;75;717;-65
2022/04/24 05:32:15;;;;;;;;;;;23.90;40.70;;;;;;1557071;76;1940;-64
2022/04/24 05:34:17;;;;;;;;;;;23.90;40.70;;;;;;1557218;76;715;-65
2022/04/24 05:36:19;;;;;;;;;;;23.90;40.70;;;;;;1557784;76;1267;-64
2022/04/24 05:38:21;;;;;;;;;;;23.80;40.60;;;;;;1557190;76;632;-65
2022/04/24 05:40:23;;;;;;;;;;;23.90;40.70;;;;;;1557144;76;720;-64
2022/04/24 05:42:25;;;;;;;;;;;23.90;40.70;;;;;;1557106;76;668;-65
2022/04/24 05:44:27;;;;;;;;;;;23.90;40.60;;;;;;1557185;76;1030;-66
2022/04/24 05:46:30;;;;;;;;;;;23.90;40.60;;;;;;1557015;76;1145;-63
2022/04/24 05:48:32;;;;;;;;;;;23.90;40.70;;;;;;1557425;76;684;-65
2022/04/24 05:50:34;;;;;;;;;;;23.90;40.70;;;;;;1557390;75;687;-65
2022/04/24 05:52:35;;;;;;;;;;;23.90;40.70;;;;;;1554103;76;1974;-65
2022/04/24 05:54:37;;;;;;;;;;;23.80;40.60;;;;;;1555640;76;681;-65
2022/04/24 05:56:39;;;;;;;;;;;23.90;40.60;;;;;;1555193;76;1141;-63
2022/04/24 05:58:41;;;;;;;;;;;23.80;40.60;;;;;;1525699;77;1489;-65
2022/04/24 06:00:43;;;;;;;;;;;23.80;40.70;;;;;;1556791;76;641;-65
2022/04/24 06:02:45;;;;;;;;;;;23.90;40.80;;;;;;1555596;76;645;-66
2022/04/24 06:04:47;;;;;;;;;;;23.90;40.80;;;;;;1558156;76;687;-64
2022/04/24 06:06:49;;;;;;;;;;;23.90;40.80;;;;;;1552351;76;1126;-64
2022/04/24 06:08:50;;;;;;;;;;;23.90;40.80;;;;;;1554110;76;670;-65
2022/04/24 06:10:52;;;;;;;;;;;23.90;40.80;;;;;;1554408;76;722;-65
2022/04/24 06:12:54;;;;;;;;;;;23.80;40.70;;;;;;1552654;76;1929;-66
2022/04/24 06:15:06;;;;;;;;;;;23.90;40.80;;;;;;1552443;76;758;-63
2022/04/24 06:17:08;;;;;;;;;;;23.90;40.90;;;;;;1553827;76;1440;-66
2022/04/24 06:19:10;;;;;;;;;;;23.90;40.80;;;;;;1550918;75;707;-65
2022/04/24 06:21:12;;;;;;;;;;;23.90;40.90;;;;;;1552552;76;619;-65
2022/04/24 06:23:14;;;;;;;;;;;23.90;40.90;;;;;;1554587;76;657;-66
2022/04/24 06:25:17;;;;;;;;;;;23.80;40.80;;;;;;1557362;76;649;-66
2022/04/24 06:27:19;;;;;;;;;;;23.80;40.90;;;;;;1553806;76;1145;-65
2022/04/24 06:29:21;;;;;;;;;;;23.80;41.00;;;;;;1551311;76;632;-67
2022/04/24 06:31:23;;;;;;;;;;;23.80;41.00;;;;;;1555843;76;641;-64
2022/04/24 06:33:25;;;;;;;;;;;23.90;41.10;;;;;;1554338;76;1940;-64
2022/04/24 06:35:27;;;;;;;;;;;23.90;41.00;;;;;;1552179;76;633;-65
2022/04/24 06:37:29;;;;;;;;;;;23.90;40.90;;;;;;1552779;76;751;-64
2022/04/24 06:39:31;;;;;;;;;;;24.00;40.70;;;;;;1552283;76;647;-64
2022/04/24 06:41:32;;;;;;;;;;;23.90;40.60;;;;;;1553610;76;732;-64
2022/04/24 06:43:34;;;;;;;;;;;23.90;40.60;;;;;;1550963;76;708;-67
2022/04/24 06:45:38;;;;;;;;;;;23.90;40.50;;;;;;1553211;76;1136;-64
2022/04/24 06:47:40;;;;;;;;;;;23.90;40.50;;;;;;1551609;76;602;-64
2022/04/24 06:49:42;;;;;;;;;;;23.90;40.40;;;;;;1552121;76;703;-65
2022/04/24 06:51:43;;;;;;;;;;;23.90;40.30;;;;;;1552297;76;700;-65
2022/04/24 06:53:46;;;;;;;;;;;23.80;40.20;;;;;;1550769;76;1927;-65
2022/04/24 06:55:48;;;;;;;;;;;23.90;40.40;;;;;;1541713;76;1156;-65
2022/04/24 06:57:51;;;;;;;;;;;23.90;40.40;;;;;;1553190;76;675;-64
2022/04/24 06:59:53;;;;;;;;;;;23.90;40.40;;;;;;1551348;76;658;-67
2022/04/24 07:01:55;;;;;;;;;;;23.90;40.50;;;;;;1545820;76;630;-66
2022/04/24 07:03:56;;;;;;;;;;;23.90;40.40;;;;;;1556247;76;708;-65
2022/04/24 07:06:00;;;;;;;;;;;23.80;40.30;;;;;;1558911;75;1166;-65
2022/04/24 07:08:02;;;;;;;;;;;23.80;40.40;;;;;;1557941;76;829;-64
2022/04/24 07:10:04;;;;;;;;;;;23.90;40.40;;;;;;1558785;75;654;-64
2022/04/24 07:12:06;;;;;;;;;;;23.90;40.30;;;;;;1552583;76;697;-65
2022/04/24 07:14:08;;;;;;;;;;;23.90;40.30;;;;;;1557584;74;1936;-64
2022/04/24 07:16:10;;;;;;;;;;;23.90;40.20;;;;;;1550726;73;2082;-62
2022/04/24 07:18:12;;;;;;;;;;;23.90;40.10;;;;;;1565686;75;639;-64
2022/04/24 07:20:14;;;;;;;;;;;23.90;40.10;;;;;;1560385;75;696;-65
2022/04/24 07:22:19;;;;;;;;;;;23.90;40.10;;;;;;1557622;75;658;-64
2022/04/24 07:24:21;;;;;;;;;;;23.90;40.10;;;;;;1560490;76;663;-64
2022/04/24 07:26:22;;;;;;;;;;;23.90;40.00;;;;;;1561459;75;1186;-63
2022/04/24 07:28:24;;;;;;;;;;;23.90;40.10;;;;;;1544946;76;674;-63
2022/04/24 07:30:26;;;;;;;;;;;23.90;40.00;;;;;;1543131;76;686;-64
2022/04/24 07:32:28;;;;;;;;;;;23.90;40.00;;;;;;1550454;76;660;-64
2022/04/24 07:34:30;;;;;;;;;;;23.90;40.00;;;;;;1554093;76;1939;-64
2022/04/24 07:36:32;;;;;;;;;;;23.80;40.00;;;;;;1518486;77;1156;-65
2022/04/24 07:38:34;;;;;;;;;;;23.80;40.00;;;;;;1517542;77;654;-66
2022/04/24 07:40:36;;;;;;;;;;;23.80;40.00;;;;;;1536809;76;688;-63
2022/04/24 07:42:44;;;;;;;;;;;23.80;40.00;;;;;;1515953;76;678;-64
2022/04/24 07:44:51;;;;;;;;;;;23.80;40.00;;;;;;1527393;76;670;-64
2022/04/24 07:46:49;;;;;;;;;;;23.90;40.10;;;;;;1528810;76;1158;-64
2022/04/24 07:48:51;;;;;;;;;;;23.80;40.00;;;;;;1527891;76;645;-65
2022/04/24 07:50:53;;;;;;;;;;;23.90;40.10;;;;;;1523067;76;1460;-65
2022/04/24 07:52:55;;;;;;;;;;;23.90;40.00;;;;;;1535899;76;628;-64
2022/04/24 07:54:57;;;;;;;;;;;23.90;40.00;;;;;;1531995;76;1950;-65
2022/04/24 07:56:59;;;;;;;;;;;23.80;39.90;;;;;;1515315;76;1097;-65
2022/04/24 07:59:01;;;;;;;;;;;23.80;39.90;;;;;;1531698;76;666;-62
2022/04/24 08:01:03;;;;;;;;;;;23.90;40.00;;;;;;1525822;76;712;-64
2022/04/24 08:03:05;;;;;;;;;;;23.80;40.00;;;;;;1533767;76;739;-65
2022/04/24 08:05:07;;;;;;;;;;;23.80;39.90;;;;;;1532742;76;649;-64
2022/04/24 08:07:10;;;;;;;;;;;23.80;39.90;;;;;;1537440;76;1159;-64
2022/04/24 08:09:11;;;;;;;;;;;23.80;39.80;;;;;;1521105;76;1466;-65
2022/04/24 08:11:13;;;;;;;;;;;23.80;39.80;;;;;;1526360;77;691;-64
2022/04/24 08:13:15;;;;;;;;;;;23.80;39.90;;;;;;1509941;77;1914;-63
2022/04/24 08:15:17;;;;;;;;;;;23.90;39.90;;;;;;1535997;75;666;-64
2022/04/24 08:17:19;;;;;;;;;;;23.80;39.80;;;;;;1539795;75;1166;-64
2022/04/24 08:19:21;;;;;;;;;;;23.90;39.90;;;;;;1524522;76;604;-65
2022/04/24 08:21:23;;;;;;;;;;;23.80;39.80;;;;;;1518873;77;623;-65
2022/04/24 08:23:25;;;;;;;;;;;23.90;39.90;;;;;;1520218;77;630;-65
2022/04/24 08:25:27;;;;;;;;;;;23.80;39.80;;;;;;1523826;76;772;-65
2022/04/24 08:27:29;;;;;;;;;;;23.90;39.80;;;;;;1525929;77;1132;-65
2022/04/24 08:29:32;;;;;;;;;;;23.90;39.80;;;;;;1524796;76;681;-66
2022/04/24 08:31:34;;;;;;;;;;;23.80;39.70;;;;;;1502306;78;671;-65
2022/04/24 08:33:36;;;;;;;;;;;23.80;39.70;;;;;;1521878;76;1932;-66
2022/04/24 08:35:38;;;;;;;;;;;23.80;39.70;;;;;;1528267;76;681;-64
2022/04/24 08:37:40;;;;;;;;;;;23.90;39.80;;;;;;1521760;76;1143;-65
2022/04/24 08:39:42;;;;;;;;;;;23.80;39.70;;;;;;1515522;77;640;-64
2022/04/24 08:41:44;;;;;;;;;;;23.80;39.70;;;;;;1530224;76;715;-64
2022/04/24 08:43:46;;;;;;;;;;;23.80;39.70;;;;;;1526054;76;692;-64
2022/04/24 08:45:49;;;;;;;;;;;23.80;39.70;;;;;;1524886;76;740;-64
2022/04/24 08:47:51;;;;;;;;;;;23.80;39.70;;;;;;1530923;76;1539;-65
2022/04/24 08:49:54;;;;;;;;;;;23.80;39.70;;;;;;1522608;76;664;-65
2022/04/24 08:51:56;;;;;;;;;;;23.80;39.70;;;;;;1523425;76;737;-62
2022/04/24 08:53:58;;;;;;;;;;;23.90;39.80;;;;;;1520732;76;1930;-65
2022/04/24 08:56:00;;;;;;;;;;;23.80;39.90;;;;;;1525107;76;577;-65
2022/04/24 08:58:02;;;;;;;;;;;23.80;40.10;;;;;;1527978;77;1144;-66
2022/04/24 09:00:04;;;;;;;;;;;23.90;40.40;;;;;;1529368;76;683;-66
2022/04/24 09:02:06;;;;;;;;;;;23.90;40.50;;;;;;1520008;76;678;-65
2022/04/24 09:04:08;;;;;;;;;;;24.00;40.70;;;;;;1518793;76;638;-66
2022/04/24 09:06:12;;;;;;;;;;;23.90;41.60;;;;;;1520540;76;1291;-68
2022/04/24 09:08:14;;;;;;;;;;;24.00;41.30;;;;;;1519960;76;1639;-65
2022/04/24 09:10:15;;;;;;;;;;;24.00;41.10;;;;;;1521347;76;638;-66
2022/04/24 09:12:18;;;;;;;;;;;24.00;41.00;;;;;;1524441;76;711;-68
2022/04/24 09:14:23;;;;;;;;;;;24.00;40.80;;;;;;1520743;76;1935;-63
2022/04/24 09:16:28;;;;;;;;;;;24.00;40.80;;;;;;1527274;76;1661;-64
2022/04/24 09:18:39;;;;;;;;;;;24.00;40.70;;;;;;1517311;76;1043;-64
2022/04/24 09:20:41;;;;;;;;;;;24.00;40.70;;;;;;1528165;76;681;-64
2022/04/24 09:22:43;;;;;;;;;;;24.00;40.60;;;;;;1527964;76;638;-64
2022/04/24 09:24:49;;;;;;;;;;;24.00;40.50;;;;;;1533034;76;746;-64
2022/04/24 09:26:54;;;;;;;;;;;24.00;40.50;;;;;;1535215;76;1139;-64
2022/04/24 09:28:56;;;;;;;;;;;24.00;40.50;;;;;;1540945;76;906;-65
2022/04/24 09:31:00;;;;;;;;;;;24.00;40.50;;;;;;1536443;76;642;-64
2022/04/24 09:33:01;;;;;;;;;;;24.00;40.50;;;;;;1530320;76;1553;-64
2022/04/24 09:35:04;;;;;;;;;;;24.00;40.50;;;;;;1534041;76;1947;-65
2022/04/24 09:37:06;;;;;;;;;;;24.10;40.60;;;;;;1533119;76;1150;-63
2022/04/24 09:39:08;;;;;;;;;;;24.00;40.50;;;;;;1536438;76;707;-66
2022/04/24 09:41:17;;;;;;;;;;;24.00;40.50;;;;;;1537401;76;727;-64
2022/04/24 09:43:19;;;;;;;;;;;24.00;40.50;;;;;;1543411;76;1517;-64
2022/04/24 09:45:25;;;;;;;;;;;24.00;40.40;;;;;;1534154;76;690;-65
2022/04/24 09:47:26;;;;;;;;;;;24.00;40.40;;;;;;1530951;76;1135;-64
2022/04/24 09:49:28;;;;;;;;;;;24.00;40.40;;;;;;1536299;76;627;-64
2022/04/24 09:51:30;;;;;;;;;;;24.00;40.50;;;;;;1540641;76;624;-64
2022/04/24 09:53:32;;;;;;;;;;;24.00;40.50;;;;;;1539514;76;641;-64
2022/04/24 09:55:34;;;;;;;;;;;24.10;40.50;;;;;;1540829;76;1948;-64
2022/04/24 09:57:36;;;;;;;;;;;24.10;40.50;;;;;;1537267;76;1126;-64
2022/04/24 09:59:39;;;;;;;;;;;24.10;40.50;;;;;;1535360;76;745;-65
2022/04/24 10:01:41;;;;;;;;;;;24.20;40.50;;;;;;1532820;76;1365;-66
2022/04/24 10:03:42;;;;;;;;;;;24.00;40.30;;;;;;1536639;76;715;-64
2022/04/24 10:05:49;;;;;;;;;;;24.10;40.50;;;;;;1506319;77;640;-65
2022/04/24 10:07:48;;;;;;;;;;;24.20;40.40;;;;;;1533679;76;1570;-63
2022/04/24 10:09:50;;;;;;;;;;;24.20;40.40;;;;;;1536275;76;604;-64
2022/04/24 10:11:52;;;;;;;;;;;24.10;40.30;;;;;;1527178;77;680;-69
2022/04/24 10:13:56;;;;;;;;;;;24.20;40.30;;;;;;1538996;75;1927;-62
2022/04/24 10:16:00;;;;;;;;;;;24.20;40.20;;;;;;1520960;76;708;-64
2022/04/24 10:18:06;;;;;;;;;;;24.20;40.20;;;;;;1507691;76;1573;-65
2022/04/24 10:20:18;;;;;;;;;;;24.10;40.20;;;;;;1503239;77;683;-67
2022/04/24 10:22:39;;;;;;;;;;;24.20;40.10;;;;;;1507691;77;1659;-67
2022/04/24 10:24:41;;;;;;;;;;;24.10;40.10;;;;;;1536439;76;664;-67
2022/04/24 10:26:53;;;;;;;;;;;24.20;40.00;;;;;;1535035;76;1144;-67
2022/04/24 10:29:02;;;;;;;;;;;24.20;39.60;;;;;;1540330;76;670;-68
2022/04/24 10:31:04;;;;;;;;;;;24.20;39.60;;;;;;1530161;76;695;-66
2022/04/24 10:33:14;;;;;;;;;;;24.10;39.50;;;;;;1540256;76;636;-67
2022/04/24 10:35:18;;;;;;;;;;;24.20;39.70;;;;;;1539588;76;1918;-67
2022/04/24 10:37:26;;;;;;;;;;;24.20;39.70;;;;;;1537601;76;1334;-67
2022/04/24 10:39:37;;;;;;;;;;;24.20;39.80;;;;;;1547246;76;1570;-67
2022/04/24 10:41:36;;;;;;;;;;;24.10;39.80;;;;;;1538358;76;1607;-66
2022/04/24 10:43:40;;;;;;;;;;;24.20;39.80;;;;;;1534472;76;695;-67
2022/04/24 10:45:45;;;;;;;;;;;24.20;39.70;;;;;;1536603;76;1068;-67
2022/04/24 10:47:52;;;;;;;;;;;24.20;39.80;;;;;;1509860;77;1141;-67
2022/04/24 10:49:56;;;;;;;;;;;24.20;39.80;;;;;;1509646;77;579;-67
2022/04/24 10:51:59;;;;;;;;;;;24.20;39.80;;;;;;1522067;77;1495;-67
2022/04/24 10:54:02;;;;;;;;;;;24.20;39.80;;;;;;1509491;77;676;-67
2022/04/24 10:56:04;;;;;;;;;;;24.20;39.80;;;;;;1502075;77;1948;-67
2022/04/24 10:58:06;;;;;;;;;;;24.20;39.80;;;;;;1505590;77;1391;-67
2022/04/24 11:00:22;;;;;;;;;;;24.20;39.80;;;;;;1542428;76;735;-66
2022/04/24 11:02:26;;;;;;;;;;;24.20;39.80;;;;;;1525812;76;1573;-66
2022/04/24 11:04:28;;;;;;;;;;;24.20;39.90;;;;;;1523841;76;1558;-67
2022/04/24 11:06:30;;;;;;;;;;;24.20;39.80;;;;;;1520351;77;1283;-67
2022/04/24 11:08:34;;;;;;;;;;;24.20;39.80;;;;;;1525372;76;589;-66
2022/04/24 11:10:42;;;;;;;;;;;24.20;39.80;;;;;;1533093;76;1586;-68
2022/04/24 11:12:46;;;;;;;;;;;24.20;39.80;;;;;;1513599;76;647;-67
2022/04/24 11:14:48;;;;;;;;;;;24.10;39.70;;;;;;1520276;77;1992;-66
2022/04/24 11:16:50;;;;;;;;;;;24.20;39.80;;;;;;1510928;77;1164;-68
2022/04/24 11:18:53;;;;;;;;;;;24.20;39.70;;;;;;1504311;77;796;-66
2022/04/24 11:20:59;;;;;;;;;;;24.20;39.70;;;;;;1517651;77;661;-67
2022/04/24 11:23:02;;;;;;;;;;;24.20;39.70;;;;;;1511834;77;597;-66
2022/04/24 11:25:04;;;;;;;;;;;24.20;39.70;;;;;;1517816;77;657;-66
2022/04/24 11:27:10;;;;;;;;;;;24.20;39.70;;;;;;1515608;77;1149;-66
2022/04/24 11:29:12;;;;;;;;;;;24.20;39.60;;;;;;1515125;77;689;-66
2022/04/24 11:31:15;;;;;;;;;;;24.30;39.70;;;;;;1518935;77;709;-66
2022/04/24 11:33:17;;;;;;;;;;;24.20;39.40;;;;;;1525784;77;690;-67
2022/04/24 11:35:19;;;;;;;;;;;24.30;39.50;;;;;;1516053;77;1934;-66
2022/04/24 11:37:23;;;;;;;;;;;24.30;39.50;;;;;;1523086;76;1144;-66
2022/04/24 11:39:25;;;;;;;;;;;24.40;39.40;;;;;;1519618;77;727;-66
2022/04/24 11:41:30;;;;;;;;;;;24.40;39.30;;;;;;1525481;77;764;-66
2022/04/24 11:43:33;;;;;;;;;;;24.40;39.30;;;;;;1511191;77;703;-66
2022/04/24 11:50:16;;;;;;;;;;;24.40;39.40;;;;;;1522807;77;697;-68
2022/04/24 11:52:18;;;;;;;;;;;24.30;39.40;;;;;;1518169;77;634;-65
2022/04/24 11:54:20;;;;;;;;;;;24.20;39.30;;;;;;1514931;77;1412;-65
2022/04/24 11:56:22;;;;;;;;;;;24.30;39.50;;;;;;1519994;77;1945;-65
2022/04/24 11:58:23;;;;;;;;;;;24.30;39.50;;;;;;1515798;77;706;-66
2022/04/24 12:00:35;;;;;;;;;;;24.30;39.50;;;;;;1522797;77;726;-65
2022/04/24 12:02:36;;;;;;;;;;;24.30;39.50;;;;;;1516610;77;699;-66
2022/04/24 12:04:40;;;;;;;;;;;24.30;39.50;;;;;;1509011;77;675;-66
2022/04/24 12:06:41;;;;;;;;;;;24.20;39.50;;;;;;1512145;77;1144;-66
2022/04/24 12:08:48;;;;;;;;;;;24.30;39.60;;;;;;1511293;77;706;-66
2022/04/24 12:10:51;;;;;;;;;;;24.20;39.50;;;;;;1523473;77;706;-67
2022/04/24 12:12:53;;;;;;;;;;;24.20;39.50;;;;;;1518413;77;670;-66
2022/04/24 12:14:55;;;;;;;;;;;24.30;39.60;;;;;;1523775;77;1932;-65
2022/04/24 12:16:58;;;;;;;;;;;24.20;39.50;;;;;;1524970;77;1168;-66